Time;durP1;ratioP1;P1;durP2;ratioP2;P2;SDS_P1;SDS_P2;PMS_P1;PMS_P2;Temp;Humidity;BMP_temperature;BMP_pressure;BME280_temperature;BME280_humidity;BME280_pressure;Samples;Min_cycle;Max_cycle;Signal;HPM_P1;HPM_P2
2022/08/14 00:04:35;;;;;;;3.97;3.28;;;25.20;53.90;;;;;;10530571;28;20107;-48
2022/08/14 00:09:36;;;;;;;3.30;3.00;;;25.20;53.70;;;;;;10512728;28;20110;-51
2022/08/14 00:14:38;;;;;;;3.47;3.17;;;25.20;53.60;;;;;;10529621;28;20035;-47
2022/08/14 00:19:38;;;;;;;3.83;3.33;;;25.20;53.80;;;;;;10530018;28;20028;-51
2022/08/14 00:24:39;;;;;;;4.53;3.40;;;25.20;53.50;;;;;;10530053;28;20032;-49
2022/08/14 00:29:40;;;;;;;4.03;3.65;;;25.20;53.50;;;;;;10500392;28;20031;-48
2022/08/14 00:34:40;;;;;;;3.67;3.38;;;25.20;53.80;;;;;;10513462;28;20040;-50
2022/08/14 00:39:41;;;;;;;3.63;3.33;;;25.20;53.70;;;;;;10529263;28;20176;-49
2022/08/14 00:44:42;;;;;;;4.68;3.45;;;25.20;54.40;;;;;;10529004;28;20039;-48
2022/08/14 00:49:44;;;;;;;3.83;3.45;;;25.20;53.70;;;;;;10529294;28;20095;-49
2022/08/14 00:54:51;;;;;;;4.20;3.65;;;25.20;53.40;;;;;;10528816;28;20043;-48
2022/08/14 00:59:52;;;;;;;4.38;3.75;;;25.20;53.70;;;;;;10528889;28;20483;-50
2022/08/14 01:04:57;;;;;;;4.07;3.67;;;25.20;53.70;;;;;;10512286;28;20073;-49
2022/08/14 01:10:03;;;;;;;4.18;3.78;;;25.20;53.90;;;;;;10518759;28;20034;-49
2022/08/14 01:15:05;;;;;;;4.55;4.15;;;25.20;53.80;;;;;;10536514;28;20028;-48
2022/08/14 01:25:25;;;;;;;4.65;4.25;;;25.20;53.70;;;;;;10521100;28;20680;-50
2022/08/14 01:30:30;;;;;;;4.90;4.50;;;25.20;53.90;;;;;;10500764;28;20028;-49
2022/08/14 01:35:31;;;;;;;4.00;3.60;;;25.20;54.00;;;;;;10526638;28;20031;-48
2022/08/14 01:40:32;;;;;;;4.15;3.75;;;25.20;53.90;;;;;;10517238;28;20051;-48
2022/08/14 01:45:33;;;;;;;6.55;4.20;;;25.10;53.80;;;;;;10535736;28;20031;-48
2022/08/14 01:50:34;;;;;;;4.40;4.00;;;25.10;53.80;;;;;;10535087;28;20395;-48
2022/08/14 01:55:35;;;;;;;4.53;4.13;;;25.10;53.90;;;;;;10516779;28;20444;-48
2022/08/14 02:00:38;;;;;;;4.65;4.25;;;25.10;54.00;;;;;;10534610;28;20055;-49
2022/08/14 02:05:38;;;;;;;4.18;3.78;;;25.20;54.00;;;;;;10535203;28;20514;-49
2022/08/14 02:10:41;;;;;;;4.47;4.07;;;25.10;54.00;;;;;;10516603;28;20111;-48
2022/08/14 02:15:41;;;;;;;5.13;4.63;;;25.10;53.80;;;;;;10515309;28;20024;-47
2022/08/14 02:20:42;;;;;;;4.82;4.32;;;25.10;53.80;;;;;;10533650;28;20032;-47
2022/08/14 02:25:43;;;;;;;4.63;4.22;;;25.10;54.00;;;;;;10533703;28;20115;-47
2022/08/14 02:30:44;;;;;;;4.60;4.13;;;25.10;54.00;;;;;;10495527;28;20049;-50
2022/08/14 02:35:45;;;;;;;5.15;4.65;;;25.10;53.90;;;;;;10508017;28;20660;-49
2022/08/14 02:40:47;;;;;;;4.90;4.40;;;25.10;53.90;;;;;;10533869;28;20040;-49
2022/08/14 02:45:48;;;;;;;4.90;4.40;;;25.10;53.80;;;;;;10533003;28;20040;-48
2022/08/14 02:50:49;;;;;;;4.40;3.88;;;25.10;54.20;;;;;;10514566;28;20448;-49
2022/08/14 02:55:49;;;;;;;5.05;4.50;;;25.10;54.20;;;;;;10532533;28;20036;-47
2022/08/14 03:00:50;;;;;;;4.57;4.18;;;25.10;54.20;;;;;;10514109;28;20027;-48
2022/08/14 03:05:52;;;;;;;4.80;4.40;;;25.10;54.10;;;;;;10532306;28;20114;-48
2022/08/14 03:10:53;;;;;;;4.65;4.25;;;25.10;54.00;;;;;;10532643;28;20415;-48
2022/08/14 03:15:54;;;;;;;4.35;3.95;;;25.00;54.00;;;;;;10532267;28;20032;-48
2022/08/14 03:20:55;;;;;;;5.07;4.60;;;25.10;54.20;;;;;;10532345;28;20039;-48
2022/08/14 03:25:56;;;;;;;4.85;4.40;;;25.00;54.20;;;;;;10531866;28;20089;-47
2022/08/14 03:30:57;;;;;;;4.88;4.47;;;25.00;54.20;;;;;;10491306;28;20028;-47
2022/08/14 03:35:58;;;;;;;5.10;4.63;;;25.00;54.00;;;;;;10526126;28;20479;-49
2022/08/14 03:40:59;;;;;;;5.10;4.60;;;25.00;54.00;;;;;;10512585;28;20047;-49
2022/08/14 03:45:59;;;;;;;5.38;4.88;;;25.00;54.10;;;;;;10513210;28;20028;-52
2022/08/14 03:51:00;;;;;;;4.90;4.40;;;25.00;54.20;;;;;;10512471;28;20038;-50
2022/08/14 03:56:01;;;;;;;4.60;4.20;;;25.00;54.30;;;;;;10530384;28;20457;-51
2022/08/14 04:01:02;;;;;;;5.80;4.38;;;25.00;54.20;;;;;;10530834;28;20496;-50
2022/08/14 04:06:07;;;;;;;5.60;5.10;;;25.00;54.10;;;;;;10530401;28;20024;-50
2022/08/14 04:11:09;;;;;;;5.15;4.70;;;25.00;54.20;;;;;;10530294;28;20031;-49
2022/08/14 04:16:19;;;;;;;5.07;4.68;;;25.00;54.20;;;;;;10508061;28;20028;-47
2022/08/14 04:21:23;;;;;;;5.13;4.72;;;25.00;54.30;;;;;;10529690;28;20032;-50
2022/08/14 04:26:26;;;;;;;5.57;4.43;;;25.00;54.30;;;;;;10512105;28;20112;-48
2022/08/14 04:31:27;;;;;;;5.45;4.95;;;25.00;54.20;;;;;;10455255;28;20024;-47
2022/08/14 04:36:28;;;;;;;5.88;5.35;;;25.00;54.20;;;;;;10530162;28;20024;-48
2022/08/14 04:52:12;;;;;;;6.13;5.53;;;25.00;54.20;;;;;;10496192;28;20035;-47
2022/08/14 04:57:13;;;;;;;6.50;5.72;;;24.90;54.10;;;;;;10539728;28;20116;-48
2022/08/14 05:02:16;;;;;;;5.07;4.68;;;24.90;54.20;;;;;;10539559;28;20698;-49
2022/08/14 05:07:16;;;;;;;6.47;5.47;;;24.90;54.20;;;;;;10538957;28;20032;-51
2022/08/14 05:12:17;;;;;;;5.53;5.03;;;24.90;54.30;;;;;;10520532;28;20024;-47
2022/08/14 05:17:18;;;;;;;5.93;5.43;;;24.90;54.20;;;;;;10538666;28;20020;-47
2022/08/14 05:22:19;;;;;;;6.18;5.68;;;24.90;54.30;;;;;;10520236;28;20763;-48
2022/08/14 05:27:19;;;;;;;5.70;5.20;;;24.90;54.30;;;;;;10528721;28;20047;-48
2022/08/14 05:32:21;;;;;;;6.38;5.70;;;24.90;54.30;;;;;;10501824;28;20449;-49
2022/08/14 05:37:23;;;;;;;5.30;4.80;;;24.90;54.40;;;;;;10538247;28;20104;-50
2022/08/14 05:42:23;;;;;;;5.82;5.25;;;24.90;54.40;;;;;;10537709;28;20067;-49
2022/08/14 05:47:24;;;;;;;6.50;5.90;;;24.90;54.40;;;;;;10537280;28;20035;-50
2022/08/14 05:52:25;;;;;;;6.75;6.03;;;24.90;54.50;;;;;;10536897;28;20547;-51
2022/08/14 05:57:26;;;;;;;6.13;5.53;;;24.80;54.50;;;;;;10537202;28;20024;-49
2022/08/14 06:02:26;;;;;;;6.00;5.40;;;24.80;54.60;;;;;;10536947;28;20055;-49
2022/08/14 06:07:27;;;;;;;5.85;5.35;;;24.80;54.50;;;;;;10536516;28;20020;-50
2022/08/14 06:12:28;;;;;;;6.10;5.60;;;24.90;54.70;;;;;;10518134;28;20043;-50
2022/08/14 06:17:28;;;;;;;5.78;5.28;;;24.80;54.70;;;;;;10518263;28;20447;-50
2022/08/14 06:22:29;;;;;;;6.32;5.72;;;24.80;54.70;;;;;;10536299;28;20399;-50
2022/08/14 06:27:39;;;;;;;5.78;5.13;;;24.90;54.80;;;;;;10535666;28;20623;-48
2022/08/14 06:32:40;;;;;;;6.28;5.63;;;24.80;54.80;;;;;;10535456;28;20036;-50
2022/08/14 06:37:50;;;;;;;5.88;5.38;;;24.80;54.80;;;;;;10534960;28;20109;-48
2022/08/14 06:42:52;;;;;;;5.75;5.25;;;24.90;54.80;;;;;;10535727;28;20035;-51
2022/08/14 06:47:54;;;;;;;6.28;5.68;;;24.80;54.80;;;;;;10535257;28;20364;-49
2022/08/14 06:52:55;;;;;;;6.25;5.68;;;24.90;54.80;;;;;;10516894;28;20036;-46
2022/08/14 06:57:56;;;;;;;6.18;5.68;;;24.90;54.80;;;;;;10534420;28;20860;-51
2022/08/14 07:08:21;;;;;;;6.25;5.57;;;24.90;54.80;;;;;;10519752;28;20036;-50
2022/08/14 07:13:23;;;;;;;5.82;5.32;;;24.90;54.80;;;;;;10533756;28;20032;-51
2022/08/14 07:18:29;;;;;;;6.25;5.65;;;24.90;54.80;;;;;;10499579;28;20024;-51
2022/08/14 07:23:30;;;;;;;6.03;5.43;;;24.90;54.80;;;;;;10533604;28;20032;-51
2022/08/14 07:28:37;;;;;;;6.72;6.15;;;24.90;54.70;;;;;;10513476;28;20024;-50
2022/08/14 07:33:45;;;;;;;6.80;6.18;;;24.90;54.60;;;;;;10507846;28;20036;-51
2022/08/14 07:38:46;;;;;;;7.10;6.43;;;24.90;54.60;;;;;;10532877;28;20078;-50
2022/08/14 07:43:46;;;;;;;7.50;6.80;;;25.00;54.60;;;;;;10532712;28;20453;-48
2022/08/14 07:48:47;;;;;;;6.43;5.82;;;25.00;54.70;;;;;;10532265;28;20435;-49
2022/08/14 07:53:48;;;;;;;5.35;4.85;;;25.00;54.80;;;;;;10514336;28;20024;-51
2022/08/14 07:58:49;;;;;;;5.72;5.18;;;25.00;54.80;;;;;;10532423;28;20051;-48
2022/08/14 08:03:50;;;;;;;5.47;4.97;;;25.00;54.90;;;;;;10531983;28;20441;-51
2022/08/14 08:08:57;;;;;;;6.85;6.25;;;25.00;55.00;;;;;;10514130;28;20471;-49
2022/08/14 08:13:59;;;;;;;7.40;6.70;;;25.00;55.00;;;;;;10514126;28;20028;-52
2022/08/14 08:19:00;;;;;;;6.35;5.75;;;25.00;55.10;;;;;;10513628;28;20035;-50
2022/08/14 08:24:01;;;;;;;7.00;6.30;;;25.00;55.20;;;;;;10531524;28;20062;-51
2022/08/14 08:29:02;;;;;;;6.90;5.82;;;25.00;55.20;;;;;;10507637;28;20032;-49
2022/08/14 08:34:06;;;;;;;6.57;5.97;;;25.00;55.20;;;;;;10491907;28;20039;-51
2022/08/14 08:39:06;;;;;;;7.45;6.85;;;25.10;55.30;;;;;;10512987;28;20127;-49
2022/08/14 08:44:07;;;;;;;7.90;6.82;;;25.10;55.30;;;;;;10513396;28;20394;-51
2022/08/14 08:49:09;;;;;;;6.63;6.03;;;25.10;55.40;;;;;;10530966;28;20043;-49
2022/08/14 08:54:14;;;;;;;7.07;6.47;;;25.10;55.40;;;;;;10530977;28;20055;-52
2022/08/14 08:59:21;;;;;;;7.05;6.40;;;25.10;55.40;;;;;;10531897;28;20067;-52
2022/08/14 09:04:22;;;;;;;7.35;6.65;;;25.20;55.50;;;;;;10530552;28;20085;-52
2022/08/14 09:09:26;;;;;;;7.55;6.85;;;25.20;55.50;;;;;;10512966;28;20513;-50
2022/08/14 09:14:33;;;;;;;7.45;6.78;;;25.20;55.50;;;;;;10531073;28;20024;-52
2022/08/14 09:19:36;;;;;;;7.13;6.38;;;25.20;55.50;;;;;;10530703;28;20471;-50
2022/08/14 09:24:37;;;;;;;7.32;6.60;;;25.20;55.60;;;;;;10530759;28;20032;-49
2022/08/14 09:29:38;;;;;;;7.32;6.63;;;25.20;55.60;;;;;;10490203;28;20029;-53
2022/08/14 09:35:00;;;;;;;7.00;6.20;;;25.20;55.60;;;;;;10521590;28;20054;-51
2022/08/14 09:40:07;;;;;;;6.85;6.25;;;25.20;55.60;;;;;;10520984;28;20396;-49
2022/08/14 09:45:31;;;;;;;6.47;5.87;;;25.20;55.60;;;;;;10537633;28;20032;-52
2022/08/14 09:50:46;;;;;;;6.95;6.35;;;25.20;55.60;;;;;;10520902;28;20168;-52
2022/08/14 09:55:58;;;;;;;7.07;5.85;;;25.30;55.70;;;;;;10537338;28;20040;-49
2022/08/14 10:01:13;;;;;;;6.13;5.53;;;25.30;55.60;;;;;;10519110;28;20024;-50
2022/08/14 10:06:17;;;;;;;6.40;5.72;;;25.30;55.70;;;;;;10537174;28;20040;-52
2022/08/14 10:11:24;;;;;;;6.35;5.57;;;25.30;55.60;;;;;;10536379;28;20059;-49
2022/08/14 10:16:28;;;;;;;6.53;5.93;;;25.30;55.50;;;;;;10518338;28;20062;-49
2022/08/14 10:21:29;;;;;;;6.60;6.00;;;25.40;55.50;;;;;;10517785;28;20303;-49
2022/08/14 10:26:30;;;;;;;5.97;5.18;;;25.40;55.60;;;;;;10515140;28;20042;-55
2022/08/14 10:31:32;;;;;;;5.50;5.00;;;25.40;55.60;;;;;;10475855;28;20036;-50
2022/08/14 10:36:38;;;;;;;5.95;5.35;;;25.40;55.50;;;;;;10516263;28;20591;-51
2022/08/14 10:41:41;;;;;;;5.57;5.07;;;25.40;55.50;;;;;;10534780;28;20048;-51
2022/08/14 10:46:49;;;;;;;6.85;6.18;;;25.50;55.50;;;;;;10517271;28;20411;-52
2022/08/14 10:52:18;;;;;;;6.37;5.73;;;25.50;55.40;;;;;;10534840;28;20040;-51
2022/08/14 10:57:25;;;;;;;6.93;6.33;;;25.60;55.40;;;;;;10534364;28;20533;-52
2022/08/14 11:02:32;;;;;;;6.60;5.72;;;25.60;55.50;;;;;;10534605;28;20280;-51
2022/08/14 11:07:38;;;;;;;6.22;5.70;;;25.60;55.50;;;;;;10534291;28;20032;-49
2022/08/14 11:12:52;;;;;;;5.82;5.32;;;25.60;55.40;;;;;;10515732;28;20056;-52
2022/08/14 11:17:55;;;;;;;7.30;6.65;;;25.60;55.50;;;;;;10533617;28;20020;-49
2022/08/14 11:22:59;;;;;;;6.63;5.95;;;25.60;55.50;;;;;;10533920;28;20024;-53
2022/08/14 11:28:00;;;;;;;6.35;5.75;;;25.60;55.30;;;;;;10499963;28;20114;-52
2022/08/14 11:33:02;;;;;;;7.15;6.45;;;25.70;55.30;;;;;;10484779;28;20032;-52
2022/08/14 11:38:06;;;;;;;5.93;5.43;;;25.70;55.30;;;;;;10533062;28;20127;-53
2022/08/14 11:43:08;;;;;;;6.75;5.68;;;25.70;55.50;;;;;;10532885;28;20024;-52
2022/08/14 11:48:22;;;;;;;5.70;5.20;;;25.80;55.50;;;;;;10533140;28;20020;-51
2022/08/14 11:53:29;;;;;;;6.13;5.38;;;25.80;55.40;;;;;;10515103;28;20036;-52
2022/08/14 11:58:36;;;;;;;6.40;5.80;;;25.80;55.50;;;;;;10532465;28;20028;-53
2022/08/14 12:03:44;;;;;;;5.97;5.47;;;25.80;55.60;;;;;;10532183;28;20089;-48
2022/08/14 12:08:45;;;;;;;5.03;4.53;;;25.80;55.50;;;;;;10532251;28;20028;-49
2022/08/14 12:13:46;;;;;;;6.22;5.63;;;25.80;55.60;;;;;;10513739;28;20529;-52
2022/08/14 12:18:49;;;;;;;6.07;5.47;;;25.80;55.60;;;;;;10531792;28;20031;-52
2022/08/14 12:24:07;;;;;;;6.07;5.57;;;25.80;55.60;;;;;;10531865;28;20082;-51
2022/08/14 12:29:11;;;;;;;6.55;5.95;;;25.90;55.50;;;;;;10489314;28;20103;-51
2022/08/14 12:34:14;;;;;;;5.93;5.32;;;25.80;55.50;;;;;;10510858;28;20027;-52
2022/08/14 12:39:24;;;;;;;5.75;5.15;;;25.90;55.60;;;;;;10531243;28;20044;-51
2022/08/14 12:44:36;;;;;;;6.35;5.72;;;25.90;55.70;;;;;;10531269;28;20034;-52
2022/08/14 12:49:37;;;;;;;6.18;5.57;;;25.90;55.50;;;;;;10496507;28;20111;-53
2022/08/14 12:54:39;;;;;;;5.38;4.88;;;25.90;55.70;;;;;;10531182;28;20036;-51
2022/08/14 12:59:41;;;;;;;5.68;5.18;;;25.90;55.60;;;;;;10531510;28;20428;-52
2022/08/14 13:04:48;;;;;;;6.35;5.75;;;25.90;55.60;;;;;;10521200;28;20060;-51
2022/08/14 13:09:55;;;;;;;6.10;5.50;;;25.90;55.50;;;;;;10538926;28;20074;-51
2022/08/14 13:15:00;;;;;;;5.53;5.03;;;25.90;55.50;;;;;;10520566;28;20024;-52
2022/08/14 13:20:02;;;;;;;6.68;6.05;;;26.00;55.50;;;;;;10539142;28;20032;-50
2022/08/14 13:25:06;;;;;;;6.60;5.05;;;26.00;55.50;;;;;;10520364;28;20085;-50
2022/08/14 13:30:10;;;;;;;5.28;4.78;;;26.00;55.50;;;;;;10505073;28;20035;-52
2022/08/14 13:35:14;;;;;;;6.38;5.80;;;26.00;55.40;;;;;;10507191;28;20495;-53
2022/08/14 13:40:18;;;;;;;5.75;5.25;;;26.00;55.50;;;;;;10537501;28;20044;-49
2022/08/14 13:45:21;;;;;;;5.85;5.25;;;26.00;55.40;;;;;;10537624;28;20244;-52
2022/08/14 13:50:21;;;;;;;5.65;5.05;;;26.00;55.40;;;;;;10537430;28;20117;-51
2022/08/14 13:55:26;;;;;;;6.18;5.40;;;26.00;55.40;;;;;;10536991;28;20548;-50
2022/08/14 14:00:27;;;;;;;5.90;5.40;;;26.00;55.40;;;;;;10519172;28;20348;-52
2022/08/14 14:05:29;;;;;;;5.60;5.10;;;25.90;55.40;;;;;;10536822;28;20032;-53
2022/08/14 14:10:34;;;;;;;5.63;5.13;;;25.90;55.50;;;;;;10518735;28;20061;-53
2022/08/14 14:15:36;;;;;;;5.50;5.00;;;25.90;55.50;;;;;;10518533;28;20119;-53
2022/08/14 14:20:42;;;;;;;6.57;5.68;;;25.90;55.50;;;;;;10501315;28;20020;-52
2022/08/14 14:25:44;;;;;;;5.90;5.40;;;25.90;55.50;;;;;;10518240;28;20059;-52
2022/08/14 14:30:46;;;;;;;5.72;5.22;;;25.90;55.40;;;;;;10497191;28;20033;-52
2022/08/14 14:35:47;;;;;;;5.07;4.57;;;25.90;55.60;;;;;;10510129;28;20028;-52
2022/08/14 14:40:50;;;;;;;5.60;5.10;;;25.90;55.60;;;;;;10517233;28;20067;-51
2022/08/14 14:45:54;;;;;;;5.40;4.90;;;25.90;55.50;;;;;;10517169;28;20035;-51
2022/08/14 14:51:00;;;;;;;5.82;5.32;;;25.80;55.10;;;;;;10534976;28;20074;-51
2022/08/14 14:56:02;;;;;;;5.32;4.82;;;25.90;55.40;;;;;;10534685;28;20058;-53
2022/08/14 15:01:08;;;;;;;5.60;5.00;;;25.90;55.20;;;;;;10534588;28;20542;-53
2022/08/14 15:06:09;;;;;;;5.22;4.72;;;25.90;55.50;;;;;;10534446;28;20034;-49
2022/08/14 15:11:10;;;;;;;6.28;5.25;;;25.90;55.60;;;;;;10534150;28;20028;-52
2022/08/14 15:16:11;;;;;;;5.70;5.20;;;25.80;55.40;;;;;;10533623;28;20034;-51
2022/08/14 15:21:13;;;;;;;6.70;6.07;;;25.90;55.70;;;;;;10515770;28;20065;-50
2022/08/14 15:26:14;;;;;;;6.43;5.82;;;25.90;55.20;;;;;;10532524;28;20498;-52
2022/08/14 15:31:15;;;;;;;5.97;5.38;;;25.90;55.40;;;;;;10491145;28;20568;-52
2022/08/14 15:36:16;;;;;;;5.45;4.95;;;25.80;55.10;;;;;;10529850;28;20028;-50
2022/08/14 15:41:17;;;;;;;6.45;5.85;;;25.90;54.80;;;;;;10515006;28;20036;-49
2022/08/14 15:46:18;;;;;;;5.65;5.05;;;25.90;54.80;;;;;;10532815;28;20035;-50
2022/08/14 15:51:19;;;;;;;5.32;4.63;;;25.90;54.80;;;;;;10497504;28;20028;-52
2022/08/14 15:56:20;;;;;;;6.28;5.68;;;25.80;55.20;;;;;;10532594;28;20383;-51
2022/08/14 16:01:22;;;;;;;6.30;5.75;;;25.90;55.20;;;;;;10514139;28;20028;-52
2022/08/14 16:06:29;;;;;;;5.50;5.00;;;25.90;55.00;;;;;;10532089;28;20058;-52
2022/08/14 16:11:29;;;;;;;6.10;5.53;;;25.90;55.10;;;;;;10532454;28;20062;-51
2022/08/14 16:16:30;;;;;;;5.13;4.63;;;25.90;55.30;;;;;;10513601;28;20031;-50
2022/08/14 16:21:33;;;;;;;5.80;5.30;;;25.90;55.30;;;;;;10531738;28;20024;-53
2022/08/14 16:26:34;;;;;;;5.63;5.13;;;25.90;55.20;;;;;;10510591;28;20107;-52
2022/08/14 16:31:35;;;;;;;6.00;5.45;;;25.90;55.20;;;;;;10471481;28;20023;-50
2022/08/14 16:36:36;;;;;;;5.95;5.35;;;25.90;54.80;;;;;;10533901;28;20043;-50
2022/08/14 16:41:38;;;;;;;6.55;5.95;;;25.90;55.20;;;;;;10539821;28;20044;-51
2022/08/14 16:46:44;;;;;;;5.63;5.13;;;25.90;55.20;;;;;;10539775;28;20024;-53
2022/08/14 16:51:45;;;;;;;6.10;5.50;;;25.80;55.00;;;;;;10522431;28;20115;-49
2022/08/14 16:56:46;;;;;;;5.72;5.22;;;25.90;55.10;;;;;;10521695;28;20593;-52
2022/08/14 17:02:02;;;;;;;5.63;5.13;;;25.90;55.00;;;;;;10539571;28;20031;-56
2022/08/14 17:07:08;;;;;;;5.10;4.60;;;25.90;55.20;;;;;;10521480;28;20024;-50
2022/08/14 17:12:17;;;;;;;5.78;5.28;;;25.90;55.30;;;;;;10538942;28;20032;-52
2022/08/14 17:17:39;;;;;;;5.40;4.90;;;25.90;55.20;;;;;;10538395;28;20047;-53
2022/08/14 17:22:58;;;;;;;6.25;5.65;;;25.90;55.20;;;;;;10522212;28;20347;-51
2022/08/14 17:28:34;;;;;;;6.07;5.57;;;25.90;55.20;;;;;;10505302;28;20116;-50
2022/08/14 17:33:36;;;;;;;5.55;5.05;;;25.90;55.10;;;;;;10507477;28;20109;-51
2022/08/14 17:38:40;;;;;;;6.03;5.53;;;25.90;55.20;;;;;;10537352;28;20067;-52
2022/08/14 17:43:41;;;;;;;5.80;5.20;;;25.90;55.40;;;;;;10537303;28;20043;-50
2022/08/14 17:48:42;;;;;;;5.47;4.78;;;25.90;55.40;;;;;;10537186;28;20120;-50
2022/08/14 17:53:43;;;;;;;5.50;5.07;;;25.90;55.40;;;;;;10518752;28;20452;-51
2022/08/14 17:58:44;;;;;;;5.13;4.63;;;25.90;55.50;;;;;;10519172;28;20048;-51
2022/08/14 18:03:47;;;;;;;4.90;4.50;;;25.90;55.50;;;;;;10518840;28;20036;-53
2022/08/14 18:08:48;;;;;;;5.55;5.05;;;25.90;55.50;;;;;;10518998;28;20411;-53
2022/08/14 18:13:49;;;;;;;5.95;5.35;;;25.90;55.60;;;;;;10518242;28;20241;-51
2022/08/14 18:18:50;;;;;;;4.97;4.57;;;25.90;55.60;;;;;;10536475;28;20035;-51
2022/08/14 18:23:51;;;;;;;4.93;4.53;;;25.90;55.60;;;;;;10501098;28;20506;-52
2022/08/14 18:28:52;;;;;;;5.63;5.13;;;25.90;55.60;;;;;;10513418;28;20028;-52
2022/08/14 18:34:16;;;;;;;5.32;4.82;;;25.90;55.60;;;;;;10512488;28;20107;-49
2022/08/14 18:39:36;;;;;;;5.32;4.85;;;26.00;55.70;;;;;;10535268;28;20044;-50
2022/08/14 18:44:49;;;;;;;5.45;4.95;;;25.90;55.70;;;;;;10517048;28;20036;-49
2022/08/14 18:49:56;;;;;;;4.57;4.18;;;25.90;55.80;;;;;;10535175;28;20028;-48
2022/08/14 18:54:57;;;;;;;5.45;4.93;;;25.90;55.80;;;;;;10535288;28;20036;-49
2022/08/14 18:59:58;;;;;;;5.35;4.85;;;25.90;55.80;;;;;;10533799;28;20024;-51
2022/08/14 19:05:00;;;;;;;5.38;4.88;;;25.90;55.90;;;;;;10534298;28;20040;-51
2022/08/14 19:10:06;;;;;;;6.30;5.70;;;26.00;56.00;;;;;;10534358;28;20107;-51
2022/08/14 19:15:08;;;;;;;5.88;5.30;;;26.00;56.10;;;;;;10534015;28;20047;-52
2022/08/14 19:20:11;;;;;;;5.68;5.13;;;26.00;56.20;;;;;;10515782;28;20028;-51
2022/08/14 19:26:00;;;;;;;5.78;5.28;;;26.00;56.20;;;;;;10533482;28;20028;-48
2022/08/14 19:31:30;;;;;;;5.80;5.30;;;25.90;56.00;;;;;;10492945;28;20109;-52
2022/08/14 19:36:51;;;;;;;6.22;5.72;;;25.90;56.10;;;;;;10514792;28;20497;-52
2022/08/14 19:41:56;;;;;;;5.80;5.30;;;25.90;56.10;;;;;;10530961;28;20068;-48
2022/08/14 19:46:56;;;;;;;7.78;6.10;;;25.90;56.10;;;;;;10513055;28;20384;-50
2022/08/14 19:51:58;;;;;;;5.60;5.07;;;25.90;56.10;;;;;;10512960;28;20036;-52
2022/08/14 19:56:59;;;;;;;5.90;5.38;;;25.90;56.10;;;;;;10529483;28;20020;-52
2022/08/14 20:01:59;;;;;;;7.90;6.10;;;25.90;56.20;;;;;;10530375;28;20450;-49
2022/08/14 20:07:01;;;;;;;7.68;6.00;;;25.90;56.10;;;;;;10530704;28;20031;-51
2022/08/14 20:12:03;;;;;;;6.60;6.00;;;25.90;56.20;;;;;;10529775;28;20028;-51
2022/08/14 20:17:04;;;;;;;7.60;6.65;;;25.90;56.20;;;;;;10530179;28;20028;-51
2022/08/14 20:22:06;;;;;;;6.63;6.03;;;25.90;56.30;;;;;;10530082;28;20494;-49
2022/08/14 20:27:27;;;;;;;8.13;6.00;;;25.90;56.30;;;;;;10522251;28;20060;-49
2022/08/14 20:32:46;;;;;;;6.93;5.53;;;25.90;56.30;;;;;;10494888;28;20536;-50
2022/08/14 20:37:47;;;;;;;6.55;5.95;;;25.90;56.30;;;;;;10529827;28;20414;-49
2022/08/14 20:48:13;;;;;;;6.50;5.82;;;25.90;56.30;;;;;;10529945;28;20119;-50
2022/08/14 20:53:31;;;;;;;8.68;6.63;;;25.90;56.40;;;;;;10511718;28;20043;-48
2022/08/14 20:58:39;;;;;;;7.47;6.18;;;25.90;56.40;;;;;;10528933;28;20020;-49
2022/08/14 21:03:43;;;;;;;6.57;5.95;;;25.90;56.40;;;;;;10511373;28;20058;-49
2022/08/14 21:08:50;;;;;;;8.60;6.82;;;25.90;56.40;;;;;;10528604;28;20398;-48
2022/08/14 21:13:51;;;;;;;7.47;6.55;;;25.90;56.40;;;;;;10510846;28;20036;-51
2022/08/14 21:18:54;;;;;;;6.88;6.18;;;25.90;56.40;;;;;;10528574;28;20028;-49
2022/08/14 21:23:59;;;;;;;6.85;6.07;;;25.90;56.50;;;;;;10533513;28;20357;-51
2022/08/14 21:28:59;;;;;;;7.32;6.60;;;25.80;56.40;;;;;;10494494;28;20036;-52
2022/08/14 21:34:01;;;;;;;6.78;6.13;;;25.90;56.50;;;;;;10513635;28;20032;-48
2022/08/14 21:39:02;;;;;;;8.63;6.13;;;25.80;56.40;;;;;;10535798;28;20067;-50
2022/08/14 21:44:04;;;;;;;7.55;6.47;;;25.80;56.40;;;;;;10517695;28;20035;-49
2022/08/14 21:49:10;;;;;;;6.55;5.50;;;25.90;56.50;;;;;;10535705;28;20024;-49
2022/08/14 21:54:12;;;;;;;7.03;6.30;;;25.80;56.40;;;;;;10535308;28;20032;-50
2022/08/14 21:59:21;;;;;;;6.68;6.05;;;25.80;56.40;;;;;;10535504;28;20024;-51
2022/08/14 22:04:23;;;;;;;7.15;6.45;;;25.80;56.40;;;;;;10517605;28;20020;-50
2022/08/14 22:09:24;;;;;;;6.88;6.18;;;25.80;56.40;;;;;;10534487;28;20146;-50
2022/08/14 22:14:25;;;;;;;6.25;5.65;;;25.80;56.40;;;;;;10534553;28;20234;-49
2022/08/14 22:19:26;;;;;;;7.25;6.55;;;25.80;56.40;;;;;;10535144;28;20038;-49
2022/08/14 22:24:27;;;;;;;9.23;6.32;;;25.80;56.40;;;;;;10533946;28;20024;-49
2022/08/14 22:29:28;;;;;;;6.85;6.07;;;25.90;56.50;;;;;;10506337;28;20032;-49
2022/08/14 22:34:28;;;;;;;6.88;6.18;;;25.80;56.40;;;;;;10515270;28;20101;-50
2022/08/14 22:39:32;;;;;;;7.28;6.57;;;25.80;56.40;;;;;;10533361;28;20044;-48
2022/08/14 22:44:38;;;;;;;7.32;6.03;;;25.80;56.40;;;;;;10515226;28;20031;-50
2022/08/14 22:49:39;;;;;;;7.38;6.72;;;25.80;56.40;;;;;;10499944;28;20051;-51
2022/08/14 22:54:40;;;;;;;6.90;6.30;;;25.80;56.40;;;;;;10514686;28;20044;-49
2022/08/14 22:59:41;;;;;;;7.22;6.32;;;25.80;56.40;;;;;;10533216;28;20110;-51
2022/08/14 23:04:42;;;;;;;6.78;6.03;;;25.80;56.30;;;;;;10532581;28;20114;-52
2022/08/14 23:09:43;;;;;;;7.70;6.97;;;25.80;56.40;;;;;;10514449;28;20034;-51
2022/08/14 23:14:44;;;;;;;7.80;7.20;;;25.80;56.30;;;;;;10532118;28;20034;-50
2022/08/14 23:19:45;;;;;;;8.10;7.30;;;25.80;56.30;;;;;;10532036;28;20032;-48
2022/08/14 23:24:47;;;;;;;7.65;6.95;;;25.80;56.30;;;;;;10513397;28;20040;-52
2022/08/14 23:29:48;;;;;;;8.45;6.80;;;25.80;56.30;;;;;;10501782;28;20029;-52
2022/08/14 23:34:48;;;;;;;7.78;7.07;;;25.80;56.30;;;;;;10497830;28;20032;-49
2022/08/14 23:39:49;;;;;;;7.20;6.53;;;25.80;56.30;;;;;;10530937;28;20040;-53
2022/08/14 23:44:50;;;;;;;8.10;7.40;;;25.80;56.30;;;;;;10531313;28;20505;-49
2022/08/14 23:49:50;;;;;;;8.52;7.35;;;25.80;56.30;;;;;;10530880;28;20065;-49
2022/08/14 23:54:51;;;;;;;7.15;6.35;;;25.80;56.30;;;;;;10530731;28;20391;-50
2022/08/14 23:59:52;;;;;;;7.13;6.53;;;25.80;56.30;;;;;;10530827;28;20031;-52
